Ultralight Friuli Airfield

IT-0173 · Friuli Venezia Giulia, 意大利

罗盘
风向 的 风向 170°
风: 12 kt, 4 beaufort

添加一条跑道以查看侧风和逆风信息。

添置 跑道
0 2.000 4.000 6.000 8.000 10.000
FEW 2.500 ft
BKN 7.500 ft
METAR LIPQ 051750Z AUTO 17012KT 9999 -RA VCTS FEW025/// BKN075/// 14/11 Q1014

METAR Aviosuperficie Ultralight Friuli - IT-0173

Aviosuperficie Ultralight Friuli是,意大利中的小机场。 该领域的国际民航组织标志是IT-0173.

这份报告是针对2022年12月5日 18:50, 当地时间在Trieste–Friuli Venezia Giulia Airport进行的。

机场观察

风向为170°,速度为12 kt。

可见度为10 km 或者更多。

有几云在2.500 ft的高度 和 碎云在7.500 ft的高度。 破损或更高的上限为7.500 ft。

当前天气为光 雨, 在附近, 雷暴 。 温度和风寒是14 °C。 露点为11 °C,相对湿度为82%。 海平面上的气压为1014 hPa (QNH)。

白天

今天,太阳从07:32升起,在16:22降落。 这适用于Aviosuperficie Ultralight Friuli,世界夏令时可能有所不同。 当地时间与世界标准时间之间的时差为+1 小时。 当前,没有夏令时有效。

公司介绍

我们没有关于这个机场的公司信息。

体会

到Vliegles.nl去找飞行课程,跳伞和其他飞行体验。 浏览页面,了解Aviosuperficie Ultralight Friuli附近所有可用的活动。 你也可以使用搜索功能来寻找你所在地附近的特定飞行课程、跳伞或其他飞行体验。

乌云

2.500 ft FEW 几云
7.500 ft BKN 碎云

温度 & 天气

天气 光 雨
在附近
雷暴
温度 14 °C
露点 11 °C
相对湿度 82%
Kp-index 0 (0-9)

白天

日出
07:31 (12:13)
中午
11:56
日落
16:22

小工具

你想在你的网站上有一个关于Aviosuperficie Ultralight Friuli的当前航空天气(METAR)的小部件吗?

显示HTML代码

我们和第三方通过cookies跟踪您在我们网站上的互联网行为。如果你继续,我们认为你同意我们的饼干政策